sensor_id;sensor_type;location;lat;lon;timestamp;P1;durP1;ratioP1;P2;durP2;ratioP2
1701;SDS011;848;48.354;10.064;2022-07-29T00:00:38;13.35;;;12.15;;
1701;SDS011;848;48.354;10.064;2022-07-29T00:03:05;13.18;;;11.98;;
1701;SDS011;848;48.354;10.064;2022-07-29T00:05:32;13.20;;;11.43;;
1701;SDS011;848;48.354;10.064;2022-07-29T00:08:01;14.77;;;13.38;;
1701;SDS011;848;48.354;10.064;2022-07-29T00:10:27;14.10;;;12.88;;
1701;SDS011;848;48.354;10.064;2022-07-29T00:12:54;15.27;;;13.60;;
1701;SDS011;848;48.354;10.064;2022-07-29T00:15:21;13.68;;;11.95;;
1701;SDS011;848;48.354;10.064;2022-07-29T00:17:48;12.52;;;11.32;;
1701;SDS011;848;48.354;10.064;2022-07-29T00:20:15;14.48;;;13.07;;
1701;SDS011;848;48.354;10.064;2022-07-29T00:22:42;14.52;;;13.18;;
1701;SDS011;848;48.354;10.064;2022-07-29T00:25:11;12.40;;;11.30;;
1701;SDS011;848;48.354;10.064;2022-07-29T00:27:39;13.57;;;12.15;;
1701;SDS011;848;48.354;10.064;2022-07-29T00:30:06;14.48;;;13.02;;
1701;SDS011;848;48.354;10.064;2022-07-29T00:32:34;12.95;;;11.75;;
1701;SDS011;848;48.354;10.064;2022-07-29T00:35:01;14.70;;;12.20;;
1701;SDS011;848;48.354;10.064;2022-07-29T00:37:45;12.82;;;11.60;;
1701;SDS011;848;48.354;10.064;2022-07-29T00:40:14;15.27;;;12.48;;
1701;SDS011;848;48.354;10.064;2022-07-29T00:42:41;14.20;;;12.07;;
1701;SDS011;848;48.354;10.064;2022-07-29T00:45:09;14.40;;;12.82;;
1701;SDS011;848;48.354;10.064;2022-07-29T00:47:36;13.75;;;12.48;;
1701;SDS011;848;48.354;10.064;2022-07-29T00:50:03;14.73;;;13.30;;
1701;SDS011;848;48.354;10.064;2022-07-29T00:52:32;16.40;;;13.32;;
1701;SDS011;848;48.354;10.064;2022-07-29T00:54:59;16.45;;;12.23;;
1701;SDS011;848;48.354;10.064;2022-07-29T00:57:27;14.65;;;13.25;;
1701;SDS011;848;48.354;10.064;2022-07-29T00:59:54;14.10;;;12.80;;
1701;SDS011;848;48.354;10.064;2022-07-29T01:02:21;15.60;;;14.10;;
1701;SDS011;848;48.354;10.064;2022-07-29T01:04:52;14.82;;;12.65;;
1701;SDS011;848;48.354;10.064;2022-07-29T01:07:21;13.68;;;12.35;;
1701;SDS011;848;48.354;10.064;2022-07-29T01:09:48;14.10;;;12.85;;
1701;SDS011;848;48.354;10.064;2022-07-29T01:12:17;14.27;;;12.88;;
1701;SDS011;848;48.354;10.064;2022-07-29T01:14:49;13.60;;;12.23;;
1701;SDS011;848;48.354;10.064;2022-07-29T01:17:18;15.32;;;13.82;;
1701;SDS011;848;48.354;10.064;2022-07-29T01:19:48;15.10;;;13.57;;
1701;SDS011;848;48.354;10.064;2022-07-29T01:22:25;15.57;;;14.10;;
1701;SDS011;848;48.354;10.064;2022-07-29T01:25:12;14.15;;;12.75;;
1701;SDS011;848;48.354;10.064;2022-07-29T01:28:00;14.75;;;13.32;;
1701;SDS011;848;48.354;10.064;2022-07-29T01:30:36;16.65;;;14.02;;
1701;SDS011;848;48.354;10.064;2022-07-29T01:33:06;15.68;;;14.07;;
1701;SDS011;848;48.354;10.064;2022-07-29T01:35:56;14.98;;;13.60;;
1701;SDS011;848;48.354;10.064;2022-07-29T01:38:25;17.73;;;15.98;;
1701;SDS011;848;48.354;10.064;2022-07-29T01:40:56;16.50;;;14.80;;
1701;SDS011;848;48.354;10.064;2022-07-29T01:43:31;15.45;;;14.02;;
1701;SDS011;848;48.354;10.064;2022-07-29T01:46:04;14.70;;;13.02;;
1701;SDS011;848;48.354;10.064;2022-07-29T01:48:37;15.75;;;14.25;;
1701;SDS011;848;48.354;10.064;2022-07-29T01:51:10;16.73;;;14.52;;
1701;SDS011;848;48.354;10.064;2022-07-29T01:53:42;16.58;;;14.85;;
1701;SDS011;848;48.354;10.064;2022-07-29T01:56:13;17.23;;;15.52;;
1701;SDS011;848;48.354;10.064;2022-07-29T01:58:42;16.20;;;14.60;;
1701;SDS011;848;48.354;10.064;2022-07-29T02:01:12;17.30;;;15.32;;
1701;SDS011;848;48.354;10.064;2022-07-29T02:03:41;18.38;;;16.27;;
1701;SDS011;848;48.354;10.064;2022-07-29T02:06:11;18.08;;;16.27;;
1701;SDS011;848;48.354;10.064;2022-07-29T02:08:40;17.02;;;15.30;;
1701;SDS011;848;48.354;10.064;2022-07-29T02:11:07;17.35;;;15.57;;
1701;SDS011;848;48.354;10.064;2022-07-29T02:13:35;20.38;;;16.73;;
1701;SDS011;848;48.354;10.064;2022-07-29T02:16:04;18.05;;;15.23;;
1701;SDS011;848;48.354;10.064;2022-07-29T02:18:36;16.33;;;14.70;;
1701;SDS011;848;48.354;10.064;2022-07-29T02:21:05;15.48;;;13.88;;
1701;SDS011;848;48.354;10.064;2022-07-29T02:23:33;16.85;;;14.93;;
1701;SDS011;848;48.354;10.064;2022-07-29T02:26:04;16.20;;;14.60;;
1701;SDS011;848;48.354;10.064;2022-07-29T02:28:33;17.13;;;15.18;;
1701;SDS011;848;48.354;10.064;2022-07-29T02:31:01;16.52;;;14.90;;
1701;SDS011;848;48.354;10.064;2022-07-29T02:33:29;16.80;;;15.25;;
1701;SDS011;848;48.354;10.064;2022-07-29T02:35:59;15.93;;;14.50;;
1701;SDS011;848;48.354;10.064;2022-07-29T02:38:27;15.63;;;14.05;;
1701;SDS011;848;48.354;10.064;2022-07-29T02:41:15;15.82;;;14.13;;
1701;SDS011;848;48.354;10.064;2022-07-29T02:43:44;15.38;;;13.98;;
1701;SDS011;848;48.354;10.064;2022-07-29T02:46:14;15.25;;;13.75;;
1701;SDS011;848;48.354;10.064;2022-07-29T02:48:48;17.48;;;15.18;;
1701;SDS011;848;48.354;10.064;2022-07-29T02:51:23;17.92;;;15.80;;
1701;SDS011;848;48.354;10.064;2022-07-29T02:53:56;16.42;;;14.73;;
1701;SDS011;848;48.354;10.064;2022-07-29T02:56:27;17.58;;;15.80;;
1701;SDS011;848;48.354;10.064;2022-07-29T02:59:01;17.42;;;13.98;;
1701;SDS011;848;48.354;10.064;2022-07-29T03:01:32;17.70;;;15.80;;
1701;SDS011;848;48.354;10.064;2022-07-29T03:04:01;16.05;;;14.57;;
1701;SDS011;848;48.354;10.064;2022-07-29T03:06:32;18.38;;;16.45;;
1701;SDS011;848;48.354;10.064;2022-07-29T03:09:00;16.85;;;15.15;;
1701;SDS011;848;48.354;10.064;2022-07-29T03:11:27;16.33;;;14.65;;
1701;SDS011;848;48.354;10.064;2022-07-29T03:13:55;18.55;;;16.65;;
1701;SDS011;848;48.354;10.064;2022-07-29T03:16:23;17.98;;;16.17;;
1701;SDS011;848;48.354;10.064;2022-07-29T03:18:51;16.52;;;14.93;;
1701;SDS011;848;48.354;10.064;2022-07-29T03:21:18;18.45;;;16.48;;
1701;SDS011;848;48.354;10.064;2022-07-29T03:23:47;17.23;;;14.70;;
1701;SDS011;848;48.354;10.064;2022-07-29T03:26:14;18.30;;;16.50;;
1701;SDS011;848;48.354;10.064;2022-07-29T03:28:41;18.08;;;15.05;;
1701;SDS011;848;48.354;10.064;2022-07-29T03:31:08;16.58;;;15.07;;
1701;SDS011;848;48.354;10.064;2022-07-29T03:33:35;17.70;;;15.90;;
1701;SDS011;848;48.354;10.064;2022-07-29T03:36:02;17.17;;;15.48;;
1701;SDS011;848;48.354;10.064;2022-07-29T03:38:29;16.55;;;14.93;;
1701;SDS011;848;48.354;10.064;2022-07-29T03:41:02;19.35;;;15.48;;
1701;SDS011;848;48.354;10.064;2022-07-29T03:43:32;15.05;;;13.55;;
1701;SDS011;848;48.354;10.064;2022-07-29T03:46:04;16.77;;;15.07;;
1701;SDS011;848;48.354;10.064;2022-07-29T03:48:34;15.65;;;14.25;;
1701;SDS011;848;48.354;10.064;2022-07-29T03:51:05;14.05;;;12.65;;
1701;SDS011;848;48.354;10.064;2022-07-29T03:53:32;14.75;;;13.35;;
1701;SDS011;848;48.354;10.064;2022-07-29T03:56:03;14.82;;;13.35;;
1701;SDS011;848;48.354;10.064;2022-07-29T03:58:31;15.45;;;13.80;;
1701;SDS011;848;48.354;10.064;2022-07-29T04:00:59;15.20;;;13.70;;
1701;SDS011;848;48.354;10.064;2022-07-29T04:03:26;19.45;;;12.77;;
1701;SDS011;848;48.354;10.064;2022-07-29T04:06:00;13.38;;;12.07;;
1701;SDS011;848;48.354;10.064;2022-07-29T04:08:30;13.27;;;11.98;;
1701;SDS011;848;48.354;10.064;2022-07-29T04:10:57;15.23;;;12.27;;
1701;SDS011;848;48.354;10.064;2022-07-29T04:13:26;13.05;;;11.85;;
1701;SDS011;848;48.354;10.064;2022-07-29T04:15:53;13.02;;;11.73;;
1701;SDS011;848;48.354;10.064;2022-07-29T04:18:20;13.93;;;12.63;;
1701;SDS011;848;48.354;10.064;2022-07-29T04:20:47;13.35;;;11.23;;
1701;SDS011;848;48.354;10.064;2022-07-29T04:23:14;12.90;;;11.50;;
1701;SDS011;848;48.354;10.064;2022-07-29T04:25:41;17.02;;;11.90;;
1701;SDS011;848;48.354;10.064;2022-07-29T04:28:08;13.63;;;12.32;;
1701;SDS011;848;48.354;10.064;2022-07-29T04:30:37;12.65;;;10.05;;
1701;SDS011;848;48.354;10.064;2022-07-29T04:33:05;16.10;;;11.02;;
1701;SDS011;848;48.354;10.064;2022-07-29T04:35:33;11.50;;;10.40;;
1701;SDS011;848;48.354;10.064;2022-07-29T04:38:01;12.70;;;10.50;;
1701;SDS011;848;48.354;10.064;2022-07-29T04:40:29;11.10;;;9.90;;
1701;SDS011;848;48.354;10.064;2022-07-29T04:42:56;11.45;;;10.23;;
1701;SDS011;848;48.354;10.064;2022-07-29T04:45:23;11.52;;;10.35;;
1701;SDS011;848;48.354;10.064;2022-07-29T04:47:51;11.82;;;9.55;;
1701;SDS011;848;48.354;10.064;2022-07-29T04:50:18;10.50;;;9.50;;
1701;SDS011;848;48.354;10.064;2022-07-29T04:52:45;10.05;;;9.05;;
1701;SDS011;848;48.354;10.064;2022-07-29T04:55:12;12.80;;;10.70;;
1701;SDS011;848;48.354;10.064;2022-07-29T04:57:39;10.70;;;9.02;;
1701;SDS011;848;48.354;10.064;2022-07-29T05:00:07;10.02;;;8.30;;
1701;SDS011;848;48.354;10.064;2022-07-29T05:02:35;10.90;;;8.70;;
1701;SDS011;848;48.354;10.064;2022-07-29T05:05:03;10.65;;;9.15;;
1701;SDS011;848;48.354;10.064;2022-07-29T05:07:31;9.70;;;8.70;;
1701;SDS011;848;48.354;10.064;2022-07-29T05:09:58;9.35;;;8.40;;
1701;SDS011;848;48.354;10.064;2022-07-29T05:12:25;9.45;;;7.30;;
1701;SDS011;848;48.354;10.064;2022-07-29T05:14:52;9.23;;;8.27;;
1701;SDS011;848;48.354;10.064;2022-07-29T05:17:19;8.43;;;7.63;;
1701;SDS011;848;48.354;10.064;2022-07-29T05:19:46;8.68;;;7.80;;
1701;SDS011;848;48.354;10.064;2022-07-29T05:22:16;7.63;;;6.93;;
1701;SDS011;848;48.354;10.064;2022-07-29T05:24:43;10.18;;;7.28;;
1701;SDS011;848;48.354;10.064;2022-07-29T05:27:10;9.45;;;7.68;;
1701;SDS011;848;48.354;10.064;2022-07-29T05:29:37;9.55;;;7.05;;
1701;SDS011;848;48.354;10.064;2022-07-29T05:32:04;10.30;;;6.60;;
1701;SDS011;848;48.354;10.064;2022-07-29T05:34:32;8.82;;;6.57;;
1701;SDS011;848;48.354;10.064;2022-07-29T05:36:59;7.95;;;6.38;;
1701;SDS011;848;48.354;10.064;2022-07-29T05:39:27;8.68;;;6.85;;
1701;SDS011;848;48.354;10.064;2022-07-29T05:41:54;7.07;;;6.45;;
1701;SDS011;848;48.354;10.064;2022-07-29T05:44:21;7.43;;;6.70;;
1701;SDS011;848;48.354;10.064;2022-07-29T05:46:48;5.90;;;5.35;;
1701;SDS011;848;48.354;10.064;2022-07-29T05:49:15;6.35;;;5.65;;
1701;SDS011;848;48.354;10.064;2022-07-29T05:51:44;7.13;;;6.00;;
1701;SDS011;848;48.354;10.064;2022-07-29T05:54:11;8.25;;;6.35;;
1701;SDS011;848;48.354;10.064;2022-07-29T05:56:39;7.28;;;6.55;;
1701;SDS011;848;48.354;10.064;2022-07-29T05:59:06;6.07;;;5.50;;
1701;SDS011;848;48.354;10.064;2022-07-29T06:01:33;8.55;;;6.03;;
1701;SDS011;848;48.354;10.064;2022-07-29T06:04:04;7.78;;;5.40;;
1701;SDS011;848;48.354;10.064;2022-07-29T06:06:31;6.65;;;5.82;;
1701;SDS011;848;48.354;10.064;2022-07-29T06:08:58;7.65;;;5.03;;
1701;SDS011;848;48.354;10.064;2022-07-29T06:11:25;5.45;;;4.90;;
1701;SDS011;848;48.354;10.064;2022-07-29T06:13:54;6.95;;;4.75;;
1701;SDS011;848;48.354;10.064;2022-07-29T06:16:21;5.55;;;4.70;;
1701;SDS011;848;48.354;10.064;2022-07-29T06:18:51;5.00;;;4.50;;
1701;SDS011;848;48.354;10.064;2022-07-29T06:21:18;7.65;;;4.55;;
1701;SDS011;848;48.354;10.064;2022-07-29T06:23:45;6.97;;;4.80;;
1701;SDS011;848;48.354;10.064;2022-07-29T06:26:12;5.07;;;4.10;;
1701;SDS011;848;48.354;10.064;2022-07-29T06:28:39;6.90;;;4.38;;
1701;SDS011;848;48.354;10.064;2022-07-29T06:31:07;4.85;;;4.20;;
1701;SDS011;848;48.354;10.064;2022-07-29T06:33:34;6.28;;;4.03;;
1701;SDS011;848;48.354;10.064;2022-07-29T06:36:03;5.13;;;4.05;;
1701;SDS011;848;48.354;10.064;2022-07-29T06:38:30;4.25;;;3.75;;
1701;SDS011;848;48.354;10.064;2022-07-29T06:40:57;7.10;;;4.18;;
1701;SDS011;848;48.354;10.064;2022-07-29T06:43:27;5.55;;;3.83;;
1701;SDS011;848;48.354;10.064;2022-07-29T06:45:58;5.87;;;4.17;;
1701;SDS011;848;48.354;10.064;2022-07-29T06:48:30;5.88;;;4.10;;
1701;SDS011;848;48.354;10.064;2022-07-29T06:50:57;5.10;;;4.03;;
1701;SDS011;848;48.354;10.064;2022-07-29T06:53:24;5.43;;;4.45;;
1701;SDS011;848;48.354;10.064;2022-07-29T06:55:51;5.47;;;4.68;;
1701;SDS011;848;48.354;10.064;2022-07-29T06:58:19;4.45;;;3.92;;
1701;SDS011;848;48.354;10.064;2022-07-29T07:00:46;4.15;;;3.70;;
1701;SDS011;848;48.354;10.064;2022-07-29T07:03:13;4.25;;;3.00;;
1701;SDS011;848;48.354;10.064;2022-07-29T07:05:42;6.32;;;4.05;;
1701;SDS011;848;48.354;10.064;2022-07-29T07:08:09;5.45;;;4.25;;
1701;SDS011;848;48.354;10.064;2022-07-29T07:10:37;5.80;;;3.10;;
1701;SDS011;848;48.354;10.064;2022-07-29T07:13:10;3.90;;;3.55;;
1701;SDS011;848;48.354;10.064;2022-07-29T07:15:37;4.25;;;3.22;;
1701;SDS011;848;48.354;10.064;2022-07-29T07:18:05;9.50;;;4.00;;
1701;SDS011;848;48.354;10.064;2022-07-29T07:20:32;4.85;;;3.70;;
1701;SDS011;848;48.354;10.064;2022-07-29T07:23:03;4.75;;;3.70;;
1701;SDS011;848;48.354;10.064;2022-07-29T07:25:30;4.35;;;3.45;;
1701;SDS011;848;48.354;10.064;2022-07-29T07:27:57;6.20;;;3.90;;
1701;SDS011;848;48.354;10.064;2022-07-29T07:30:24;4.82;;;3.70;;
1701;SDS011;848;48.354;10.064;2022-07-29T07:32:52;8.70;;;3.97;;
1701;SDS011;848;48.354;10.064;2022-07-29T07:35:19;4.47;;;3.67;;
1701;SDS011;848;48.354;10.064;2022-07-29T07:37:46;3.85;;;3.45;;
1701;SDS011;848;48.354;10.064;2022-07-29T07:40:14;7.90;;;3.70;;
1701;SDS011;848;48.354;10.064;2022-07-29T07:42:41;5.05;;;3.50;;
1701;SDS011;848;48.354;10.064;2022-07-29T07:45:09;4.63;;;3.60;;
1701;SDS011;848;48.354;10.064;2022-07-29T07:47:37;3.70;;;3.20;;
1701;SDS011;848;48.354;10.064;2022-07-29T07:50:05;4.65;;;3.53;;
1701;SDS011;848;48.354;10.064;2022-07-29T07:52:34;5.43;;;3.08;;
1701;SDS011;848;48.354;10.064;2022-07-29T07:55:11;3.30;;;2.72;;
1701;SDS011;848;48.354;10.064;2022-07-29T07:57:39;5.20;;;3.55;;
1701;SDS011;848;48.354;10.064;2022-07-29T08:00:07;4.97;;;4.13;;
1701;SDS011;848;48.354;10.064;2022-07-29T08:02:34;4.73;;;3.47;;
1701;SDS011;848;48.354;10.064;2022-07-29T08:05:01;4.93;;;3.20;;
1701;SDS011;848;48.354;10.064;2022-07-29T08:07:29;4.83;;;3.50;;
1701;SDS011;848;48.354;10.064;2022-07-29T08:09:55;7.85;;;3.45;;
1701;SDS011;848;48.354;10.064;2022-07-29T08:12:22;4.30;;;3.47;;
1701;SDS011;848;48.354;10.064;2022-07-29T08:14:51;3.80;;;2.92;;
1701;SDS011;848;48.354;10.064;2022-07-29T08:17:17;6.63;;;3.87;;
1701;SDS011;848;48.354;10.064;2022-07-29T08:19:44;4.93;;;2.90;;
1701;SDS011;848;48.354;10.064;2022-07-29T08:22:13;9.37;;;3.60;;
1701;SDS011;848;48.354;10.064;2022-07-29T08:24:40;5.30;;;3.47;;
1701;SDS011;848;48.354;10.064;2022-07-29T08:29:54;7.00;;;3.47;;
1701;SDS011;848;48.354;10.064;2022-07-29T08:32:21;3.30;;;2.97;;
1701;SDS011;848;48.354;10.064;2022-07-29T08:34:48;6.47;;;4.00;;
1701;SDS011;848;48.354;10.064;2022-07-29T08:37:15;3.73;;;3.43;;
1701;SDS011;848;48.354;10.064;2022-07-29T08:39:42;4.50;;;3.20;;
1701;SDS011;848;48.354;10.064;2022-07-29T08:42:10;6.30;;;3.30;;
1701;SDS011;848;48.354;10.064;2022-07-29T08:44:37;7.20;;;3.57;;
1701;SDS011;848;48.354;10.064;2022-07-29T08:47:06;6.50;;;3.70;;
1701;SDS011;848;48.354;10.064;2022-07-29T08:49:33;7.40;;;4.07;;
1701;SDS011;848;48.354;10.064;2022-07-29T08:52:01;5.87;;;3.40;;
1701;SDS011;848;48.354;10.064;2022-07-29T08:54:29;4.67;;;3.27;;
1701;SDS011;848;48.354;10.064;2022-07-29T08:56:56;4.73;;;4.00;;
1701;SDS011;848;48.354;10.064;2022-07-29T08:59:24;4.43;;;4.03;;
1701;SDS011;848;48.354;10.064;2022-07-29T09:01:54;5.03;;;4.03;;
1701;SDS011;848;48.354;10.064;2022-07-29T09:04:25;4.27;;;3.87;;
1701;SDS011;848;48.354;10.064;2022-07-29T09:06:58;5.70;;;3.97;;
1701;SDS011;848;48.354;10.064;2022-07-29T09:09:30;4.60;;;3.50;;
1701;SDS011;848;48.354;10.064;2022-07-29T09:11:57;4.50;;;3.90;;
1701;SDS011;848;48.354;10.064;2022-07-29T09:14:25;4.83;;;4.33;;
1701;SDS011;848;48.354;10.064;2022-07-29T09:16:53;6.83;;;4.70;;
1701;SDS011;848;48.354;10.064;2022-07-29T09:19:22;8.40;;;4.37;;
1701;SDS011;848;48.354;10.064;2022-07-29T09:21:52;8.13;;;3.70;;
1701;SDS011;848;48.354;10.064;2022-07-29T09:24:39;6.30;;;4.83;;
1701;SDS011;848;48.354;10.064;2022-07-29T09:27:11;5.90;;;4.33;;
1701;SDS011;848;48.354;10.064;2022-07-29T09:29:46;5.33;;;4.83;;
1701;SDS011;848;48.354;10.064;2022-07-29T09:32:13;5.27;;;4.20;;
1701;SDS011;848;48.354;10.064;2022-07-29T09:34:40;4.90;;;4.40;;
1701;SDS011;848;48.354;10.064;2022-07-29T09:37:09;10.17;;;5.07;;
1701;SDS011;848;48.354;10.064;2022-07-29T09:39:37;4.87;;;4.37;;
1701;SDS011;848;48.354;10.064;2022-07-29T09:42:11;5.77;;;5.17;;
1701;SDS011;848;48.354;10.064;2022-07-29T09:44:43;4.80;;;4.40;;
1701;SDS011;848;48.354;10.064;2022-07-29T09:47:10;11.27;;;4.43;;
1701;SDS011;848;48.354;10.064;2022-07-29T09:49:50;5.90;;;4.70;;
1701;SDS011;848;48.354;10.064;2022-07-29T09:52:19;4.23;;;3.83;;
1701;SDS011;848;48.354;10.064;2022-07-29T09:54:47;5.43;;;3.60;;
1701;SDS011;848;48.354;10.064;2022-07-29T09:57:24;8.40;;;4.43;;
1701;SDS011;848;48.354;10.064;2022-07-29T09:59:58;4.70;;;4.20;;
1701;SDS011;848;48.354;10.064;2022-07-29T10:02:29;5.50;;;4.30;;
1701;SDS011;848;48.354;10.064;2022-07-29T10:04:56;7.37;;;4.50;;
1701;SDS011;848;48.354;10.064;2022-07-29T10:07:25;5.67;;;4.57;;
1701;SDS011;848;48.354;10.064;2022-07-29T10:09:52;5.47;;;4.77;;
1701;SDS011;848;48.354;10.064;2022-07-29T10:12:20;4.93;;;4.53;;
1701;SDS011;848;48.354;10.064;2022-07-29T10:14:48;5.70;;;4.20;;
1701;SDS011;848;48.354;10.064;2022-07-29T10:17:15;5.00;;;4.50;;
1701;SDS011;848;48.354;10.064;2022-07-29T10:19:43;5.10;;;4.23;;
1701;SDS011;848;48.354;10.064;2022-07-29T10:22:10;5.80;;;4.07;;
1701;SDS011;848;48.354;10.064;2022-07-29T10:24:42;3.97;;;3.57;;
1701;SDS011;848;48.354;10.064;2022-07-29T10:27:09;5.00;;;3.90;;
1701;SDS011;848;48.354;10.064;2022-07-29T10:29:36;6.43;;;4.80;;
1701;SDS011;848;48.354;10.064;2022-07-29T10:35:08;3.93;;;3.53;;
1701;SDS011;848;48.354;10.064;2022-07-29T10:38:02;4.30;;;3.90;;
1701;SDS011;848;48.354;10.064;2022-07-29T10:40:39;4.37;;;3.80;;
1701;SDS011;848;48.354;10.064;2022-07-29T10:43:31;4.30;;;3.70;;
1701;SDS011;848;48.354;10.064;2022-07-29T10:46:02;4.00;;;3.60;;
1701;SDS011;848;48.354;10.064;2022-07-29T10:48:30;4.63;;;3.93;;
1701;SDS011;848;48.354;10.064;2022-07-29T10:50:58;4.97;;;4.40;;
1701;SDS011;848;48.354;10.064;2022-07-29T10:56:27;6.47;;;3.57;;
1701;SDS011;848;48.354;10.064;2022-07-29T11:01:53;4.60;;;4.20;;
1701;SDS011;848;48.354;10.064;2022-07-29T11:07:23;6.83;;;4.20;;
1701;SDS011;848;48.354;10.064;2022-07-29T11:12:49;4.30;;;3.90;;
1701;SDS011;848;48.354;10.064;2022-07-29T11:15:17;4.13;;;3.73;;
1701;SDS011;848;48.354;10.064;2022-07-29T11:18:05;4.30;;;3.90;;
1701;SDS011;848;48.354;10.064;2022-07-29T11:20:34;5.80;;;3.93;;
1701;SDS011;848;48.354;10.064;2022-07-29T11:24:14;5.87;;;4.30;;
1701;SDS011;848;48.354;10.064;2022-07-29T11:26:42;4.07;;;3.70;;
1701;SDS011;848;48.354;10.064;2022-07-29T11:29:16;5.77;;;3.70;;
1701;SDS011;848;48.354;10.064;2022-07-29T11:31:49;4.73;;;3.40;;
1701;SDS011;848;48.354;10.064;2022-07-29T11:34:20;4.73;;;3.87;;
1701;SDS011;848;48.354;10.064;2022-07-29T11:39:43;4.80;;;3.77;;
1701;SDS011;848;48.354;10.064;2022-07-29T11:45:07;3.40;;;3.10;;
1701;SDS011;848;48.354;10.064;2022-07-29T11:47:35;7.47;;;3.97;;
1701;SDS011;848;48.354;10.064;2022-07-29T11:50:05;4.10;;;2.90;;
1701;SDS011;848;48.354;10.064;2022-07-29T11:52:34;3.90;;;3.00;;
1701;SDS011;848;48.354;10.064;2022-07-29T11:55:04;4.73;;;3.50;;
1701;SDS011;848;48.354;10.064;2022-07-29T11:57:33;3.40;;;3.10;;
1701;SDS011;848;48.354;10.064;2022-07-29T12:00:02;5.73;;;3.30;;
1701;SDS011;848;48.354;10.064;2022-07-29T12:02:38;6.57;;;3.63;;
1701;SDS011;848;48.354;10.064;2022-07-29T12:05:07;3.83;;;3.30;;
1701;SDS011;848;48.354;10.064;2022-07-29T12:07:35;4.50;;;3.00;;
1701;SDS011;848;48.354;10.064;2022-07-29T12:10:05;5.50;;;3.27;;
1701;SDS011;848;48.354;10.064;2022-07-29T12:12:33;3.90;;;3.50;;
1701;SDS011;848;48.354;10.064;2022-07-29T12:15:10;6.47;;;4.20;;
1701;SDS011;848;48.354;10.064;2022-07-29T12:17:38;4.50;;;3.40;;
1701;SDS011;848;48.354;10.064;2022-07-29T12:20:05;4.57;;;3.20;;
1701;SDS011;848;48.354;10.064;2022-07-29T12:22:34;3.83;;;3.43;;
1701;SDS011;848;48.354;10.064;2022-07-29T12:25:06;6.57;;;4.00;;
1701;SDS011;848;48.354;10.064;2022-07-29T12:27:34;3.93;;;3.50;;
1701;SDS011;848;48.354;10.064;2022-07-29T12:30:04;4.30;;;3.50;;
1701;SDS011;848;48.354;10.064;2022-07-29T12:32:33;6.30;;;3.80;;
1701;SDS011;848;48.354;10.064;2022-07-29T12:35:03;5.93;;;4.00;;
1701;SDS011;848;48.354;10.064;2022-07-29T12:37:31;4.50;;;3.70;;
1701;SDS011;848;48.354;10.064;2022-07-29T12:40:00;5.83;;;4.00;;
1701;SDS011;848;48.354;10.064;2022-07-29T12:42:28;4.53;;;3.00;;
1701;SDS011;848;48.354;10.064;2022-07-29T12:44:55;4.50;;;4.10;;
1701;SDS011;848;48.354;10.064;2022-07-29T12:47:22;4.97;;;3.00;;
1701;SDS011;848;48.354;10.064;2022-07-29T12:49:50;3.97;;;3.20;;
1701;SDS011;848;48.354;10.064;2022-07-29T12:55:03;4.60;;;4.00;;
1701;SDS011;848;48.354;10.064;2022-07-29T12:57:32;4.97;;;3.57;;
1701;SDS011;848;48.354;10.064;2022-07-29T13:00:11;4.50;;;3.00;;
1701;SDS011;848;48.354;10.064;2022-07-29T13:02:39;6.27;;;3.53;;
1701;SDS011;848;48.354;10.064;2022-07-29T13:05:07;4.23;;;3.57;;
1701;SDS011;848;48.354;10.064;2022-07-29T13:07:36;4.70;;;3.20;;
1701;SDS011;848;48.354;10.064;2022-07-29T13:10:10;3.43;;;3.10;;
1701;SDS011;848;48.354;10.064;2022-07-29T13:12:40;4.50;;;3.63;;
1701;SDS011;848;48.354;10.064;2022-07-29T13:15:27;5.67;;;3.40;;
1701;SDS011;848;48.354;10.064;2022-07-29T13:17:55;3.87;;;3.03;;
1701;SDS011;848;48.354;10.064;2022-07-29T13:20:23;4.03;;;3.63;;
1701;SDS011;848;48.354;10.064;2022-07-29T13:22:54;4.73;;;3.27;;
1701;SDS011;848;48.354;10.064;2022-07-29T13:25:25;5.53;;;3.43;;
1701;SDS011;848;48.354;10.064;2022-07-29T13:27:54;4.87;;;3.53;;
1701;SDS011;848;48.354;10.064;2022-07-29T13:30:22;4.00;;;3.20;;
1701;SDS011;848;48.354;10.064;2022-07-29T13:32:49;4.20;;;3.03;;
1701;SDS011;848;48.354;10.064;2022-07-29T13:35:18;4.80;;;4.17;;
1701;SDS011;848;48.354;10.064;2022-07-29T13:37:45;4.50;;;3.23;;
1701;SDS011;848;48.354;10.064;2022-07-29T13:40:13;3.50;;;3.20;;
1701;SDS011;848;48.354;10.064;2022-07-29T13:42:40;4.10;;;3.30;;
1701;SDS011;848;48.354;10.064;2022-07-29T13:45:09;17.13;;;3.93;;
1701;SDS011;848;48.354;10.064;2022-07-29T13:47:37;3.53;;;3.23;;
1701;SDS011;848;48.354;10.064;2022-07-29T13:50:05;5.50;;;4.27;;
1701;SDS011;848;48.354;10.064;2022-07-29T13:52:34;6.07;;;5.47;;
1701;SDS011;848;48.354;10.064;2022-07-29T13:55:02;6.80;;;3.10;;
1701;SDS011;848;48.354;10.064;2022-07-29T13:57:30;4.07;;;3.38;;
1701;SDS011;848;48.354;10.064;2022-07-29T13:59:58;7.63;;;2.70;;
1701;SDS011;848;48.354;10.064;2022-07-29T14:02:26;5.32;;;2.40;;
1701;SDS011;848;48.354;10.064;2022-07-29T14:04:53;3.95;;;2.95;;
1701;SDS011;848;48.354;10.064;2022-07-29T14:07:20;3.58;;;2.15;;
1701;SDS011;848;48.354;10.064;2022-07-29T14:09:47;4.93;;;2.25;;
1701;SDS011;848;48.354;10.064;2022-07-29T14:12:15;2.78;;;2.55;;
1701;SDS011;848;48.354;10.064;2022-07-29T14:14:42;2.80;;;2.22;;
1701;SDS011;848;48.354;10.064;2022-07-29T14:17:09;4.07;;;2.80;;
1701;SDS011;848;48.354;10.064;2022-07-29T14:19:37;2.70;;;1.90;;
1701;SDS011;848;48.354;10.064;2022-07-29T14:22:10;9.77;;;3.28;;
1701;SDS011;848;48.354;10.064;2022-07-29T14:24:37;18.67;;;10.15;;
1701;SDS011;848;48.354;10.064;2022-07-29T14:27:05;6.85;;;4.40;;
1701;SDS011;848;48.354;10.064;2022-07-29T14:29:32;9.75;;;4.95;;
1701;SDS011;848;48.354;10.064;2022-07-29T14:32:00;7.47;;;6.05;;
1701;SDS011;848;48.354;10.064;2022-07-29T14:34:27;11.32;;;4.57;;
1701;SDS011;848;48.354;10.064;2022-07-29T14:36:55;5.95;;;3.80;;
1701;SDS011;848;48.354;10.064;2022-07-29T14:39:22;4.13;;;3.30;;
1701;SDS011;848;48.354;10.064;2022-07-29T14:41:49;5.68;;;3.85;;
1701;SDS011;848;48.354;10.064;2022-07-29T14:44:17;7.55;;;4.00;;
1701;SDS011;848;48.354;10.064;2022-07-29T14:46:44;8.75;;;3.95;;
1701;SDS011;848;48.354;10.064;2022-07-29T14:49:11;4.88;;;3.20;;
1701;SDS011;848;48.354;10.064;2022-07-29T14:51:38;6.05;;;3.40;;
1701;SDS011;848;48.354;10.064;2022-07-29T14:54:06;6.85;;;4.70;;
1701;SDS011;848;48.354;10.064;2022-07-29T14:56:33;6.45;;;4.65;;
1701;SDS011;848;48.354;10.064;2022-07-29T14:59:00;6.90;;;4.47;;
1701;SDS011;848;48.354;10.064;2022-07-29T15:01:27;5.80;;;4.97;;
1701;SDS011;848;48.354;10.064;2022-07-29T15:03:54;7.97;;;5.60;;
1701;SDS011;848;48.354;10.064;2022-07-29T15:06:21;10.68;;;7.32;;
1701;SDS011;848;48.354;10.064;2022-07-29T15:08:48;9.85;;;7.47;;
1701;SDS011;848;48.354;10.064;2022-07-29T15:11:16;10.02;;;6.13;;
1701;SDS011;848;48.354;10.064;2022-07-29T15:13:43;9.20;;;7.38;;
1701;SDS011;848;48.354;10.064;2022-07-29T15:16:10;9.95;;;7.05;;
1701;SDS011;848;48.354;10.064;2022-07-29T15:18:37;7.68;;;6.40;;
1701;SDS011;848;48.354;10.064;2022-07-29T15:21:04;11.05;;;6.25;;
1701;SDS011;848;48.354;10.064;2022-07-29T15:23:32;9.60;;;7.47;;
1701;SDS011;848;48.354;10.064;2022-07-29T15:26:01;10.38;;;6.47;;
1701;SDS011;848;48.354;10.064;2022-07-29T15:28:29;7.55;;;6.53;;
1701;SDS011;848;48.354;10.064;2022-07-29T15:30:56;10.18;;;7.30;;
1701;SDS011;848;48.354;10.064;2022-07-29T15:33:23;7.30;;;6.40;;
1701;SDS011;848;48.354;10.064;2022-07-29T15:35:51;8.90;;;7.03;;
1701;SDS011;848;48.354;10.064;2022-07-29T15:38:18;8.68;;;7.50;;
1701;SDS011;848;48.354;10.064;2022-07-29T15:40:45;7.35;;;6.45;;
1701;SDS011;848;48.354;10.064;2022-07-29T15:43:14;9.25;;;7.28;;